Time;durP1;ratioP1;P1;durP2;ratioP2;P2;SDS_P1;SDS_P2;PMS_P1;PMS_P2;Temp;Humidity;BMP_temperature;BMP_pressure;BME280_temperature;BME280_humidity;BME280_pressure;Samples;Min_cycle;Max_cycle;Signal;HPM_P1;HPM_P2
2021/12/17 00:00:32;;;;;;;6.87;3.12;;;;;;;;;;1758485;81;20978;-65
2021/12/17 00:05:46;;;;;;;6.15;3.27;;;;;;;;;;1754761;81;21845;-65
2021/12/17 00:08:10;;;;;;;4.65;3.45;;;;;;;;;;1725433;82;20931;-66
2021/12/17 00:10:38;;;;;;;4.85;3.30;;;;;;;;;;1680332;83;20966;-66
2021/12/17 00:13:05;;;;;;;4.47;3.33;;;;;;;;;;1757789;81;21527;-65
2021/12/17 00:15:31;;;;;;;4.05;3.40;;;;;;;;;;1754922;81;20993;-65
2021/12/17 00:18:05;;;;;;;4.97;3.35;;;;;;;;;;1747223;81;21077;-66
2021/12/17 00:50:53;;;;;;;5.62;3.10;;;;;;;;;;1729210;83;20999;-65
2021/12/17 00:52:55;;;;;;;6.50;3.42;;;;;;;;;;1726340;81;20911;-65
2021/12/17 00:55:22;;;;;;;5.40;2.72;;;;;;;;;;1729607;81;21548;-65
2021/12/17 00:57:48;;;;;;;5.53;3.02;;;;;;;;;;1729213;81;21152;-66
2021/12/17 01:00:20;;;;;;;5.22;3.05;;;;;;;;;;1729110;82;20883;-65
2021/12/17 01:02:47;;;;;;;6.65;3.42;;;;;;;;;;1728668;81;20942;-65
2021/12/17 01:05:16;;;;;;;6.03;3.15;;;;;;;;;;1728668;83;20978;-65
2021/12/17 01:07:45;;;;;;;7.10;3.12;;;;;;;;;;1731002;81;20935;-65
2021/12/17 01:10:21;;;;;;;5.85;3.05;;;;;;;;;;1730157;81;21127;-64
2021/12/17 01:12:50;;;;;;;5.10;2.70;;;;;;;;;;1728473;81;20982;-65
2021/12/17 01:15:24;;;;;;;6.05;3.02;;;;;;;;;;1711189;83;20895;-65
2021/12/17 01:18:09;;;;;;;4.58;2.83;;;;;;;;;;1730711;81;21017;-65
2021/12/17 01:20:54;;;;;;;5.53;3.12;;;;;;;;;;1755920;80;20887;-66
2021/12/17 01:42:26;;;;;;;4.67;2.50;;;;;;;;;;1758420;80;20855;-67
2021/12/17 01:44:52;;;;;;;6.25;2.92;;;;;;;;;;1756862;81;20911;-66
2021/12/17 01:47:18;;;;;;;4.25;2.62;;;;;;;;;;1755097;81;20895;-64
2021/12/17 02:00:41;;;;;;;5.92;2.80;;;;;;;;;;1756438;81;20983;-67
2021/12/17 02:03:08;;;;;;;8.78;2.85;;;;;;;;;;1755882;81;21153;-66
2021/12/17 02:05:34;;;;;;;4.60;2.80;;;;;;;;;;1754794;80;20965;-67
2021/12/17 02:08:02;;;;;;;4.65;2.27;;;;;;;;;;1754378;81;20907;-66
2021/12/17 02:11:09;;;;;;;4.20;2.60;;;;;;;;;;1753899;81;20950;-65
2021/12/17 02:31:58;;;;;;;4.62;3.02;;;;;;;;;;1755317;80;20431;-65
2021/12/17 02:36:56;;;;;;;5.37;2.20;;;;;;;;;;1751883;80;21033;-64
2021/12/17 02:47:22;;;;;;;5.60;2.58;;;;;;;;;;1751707;80;21014;-65
2021/12/17 02:49:48;;;;;;;7.70;2.60;;;;;;;;;;1754214;80;21011;-66
2021/12/17 02:52:15;;;;;;;4.60;2.80;;;;;;;;;;1728304;81;21442;-65
2021/12/17 02:54:42;;;;;;;5.10;3.10;;;;;;;;;;1753950;80;21108;-65
2021/12/17 02:57:09;;;;;;;6.95;2.77;;;;;;;;;;1754906;81;20883;-66
2021/12/17 02:59:36;;;;;;;5.83;2.52;;;;;;;;;;1751598;80;20986;-65
2021/12/17 03:02:03;;;;;;;5.72;2.60;;;;;;;;;;1745346;80;21529;-65
2021/12/17 03:04:31;;;;;;;4.90;2.58;;;;;;;;;;1755390;80;21022;-65
2021/12/17 03:06:57;;;;;;;6.70;2.30;;;;;;;;;;1719922;82;21095;-66
2021/12/17 03:09:42;;;;;;;5.85;2.40;;;;;;;;;;1752038;80;21497;-66
2021/12/17 03:11:52;;;;;;;6.42;2.67;;;;;;;;;;1751884;80;20891;-66
2021/12/17 03:14:19;;;;;;;5.90;2.22;;;;;;;;;;1752155;80;21791;-66
2021/12/17 03:16:57;;;;;;;6.42;2.60;;;;;;;;;;1751952;80;20856;-66
2021/12/17 03:23:24;;;;;;;5.30;2.80;;;;;;;;;;1751635;80;21950;-65
2021/12/17 03:24:29;;;;;;;9.58;2.70;;;;;;;;;;1743809;81;20974;-66
2021/12/17 03:26:56;;;;;;;10.60;3.12;;;;;;;;;;1749003;81;21010;-65
2021/12/17 03:29:22;;;;;;;6.30;2.90;;;;;;;;;;1748920;81;21485;-65
2021/12/17 03:31:50;;;;;;;6.28;2.95;;;;;;;;;;1748069;81;22312;-66
2021/12/17 03:34:21;;;;;;;6.83;2.50;;;;;;;;;;1748561;81;20891;-65
2021/12/17 03:36:57;;;;;;;7.30;2.67;;;;;;;;;;1750977;81;21533;-65
2021/12/17 03:39:25;;;;;;;8.43;2.60;;;;;;;;;;1748170;81;21434;-65
2021/12/17 03:41:52;;;;;;;10.23;2.87;;;;;;;;;;1748802;81;21552;-65
2021/12/17 03:44:20;;;;;;;8.40;3.40;;;;;;;;;;1746929;81;21177;-65
2021/12/17 03:46:49;;;;;;;6.05;2.92;;;;;;;;;;1745535;81;20899;-66
2021/12/17 03:49:17;;;;;;;4.78;2.65;;;;;;;;;;1751749;81;20986;-66
2021/12/17 03:51:51;;;;;;;5.67;2.25;;;;;;;;;;1715155;83;20989;-65
2021/12/17 03:54:16;;;;;;;7.05;3.30;;;;;;;;;;1747490;81;21532;-65
2021/12/17 03:56:42;;;;;;;10.03;2.85;;;;;;;;;;1753528;80;21149;-65
2021/12/17 03:59:10;;;;;;;5.97;3.55;;;;;;;;;;1762901;80;21258;-65
2021/12/17 04:01:38;;;;;;;6.67;3.27;;;;;;;;;;1720423;81;20951;-65
2021/12/17 04:04:05;;;;;;;6.12;3.52;;;;;;;;;;1750288;81;21234;-65
2021/12/17 04:06:33;;;;;;;4.40;3.08;;;;;;;;;;1723835;81;21509;-65
2021/12/17 04:09:21;;;;;;;6.85;3.08;;;;;;;;;;1710230;83;20979;-65
2021/12/17 04:11:52;;;;;;;5.12;2.75;;;;;;;;;;1681996;85;20967;-66
2021/12/17 04:14:33;;;;;;;7.15;2.83;;;;;;;;;;1749304;81;20991;-66
2021/12/17 04:16:55;;;;;;;5.25;2.67;;;;;;;;;;1748551;81;21041;-65
2021/12/17 04:19:23;;;;;;;5.33;2.47;;;;;;;;;;1748765;80;20987;-65
2021/12/17 04:21:49;;;;;;;5.20;2.30;;;;;;;;;;1755402;80;21135;-65
2021/12/17 04:24:16;;;;;;;5.10;2.58;;;;;;;;;;1743897;80;21476;-66
2021/12/17 04:26:43;;;;;;;6.20;2.40;;;;;;;;;;1752316;80;20947;-65
2021/12/17 04:29:11;;;;;;;4.10;2.10;;;;;;;;;;1756488;80;21058;-66
2021/12/17 04:31:38;;;;;;;7.28;2.87;;;;;;;;;;1751498;80;20891;-66
2021/12/17 04:34:05;;;;;;;7.92;3.60;;;;;;;;;;1755340;80;21217;-67
2021/12/17 04:36:35;;;;;;;12.00;5.28;;;;;;;;;;1751636;80;20942;-68
2021/12/17 04:39:02;;;;;;;7.45;4.17;;;;;;;;;;1747285;81;21484;-67
2021/12/17 04:44:12;;;;;;;11.65;3.27;;;;;;;;;;1740361;81;21547;-67
2021/12/17 04:57:33;;;;;;;8.90;3.52;;;;;;;;;;1752019;80;20883;-66
2021/12/17 05:00:03;;;;;;;5.80;2.83;;;;;;;;;;1751455;80;21273;-64
2021/12/17 05:02:31;;;;;;;5.53;2.20;;;;;;;;;;1719256;82;20969;-65
2021/12/17 05:05:05;;;;;;;7.75;2.83;;;;;;;;;;1753185;80;21520;-66
2021/12/17 05:07:27;;;;;;;4.65;2.15;;;;;;;;;;1751476;80;21819;-65
2021/12/17 05:10:08;;;;;;;7.28;2.55;;;;;;;;;;1754129;80;21001;-66
2021/12/17 05:20:50;;;;;;;7.50;3.15;;;;;;;;;;1704519;82;21589;-65
2021/12/17 05:23:19;;;;;;;4.83;2.30;;;;;;;;;;1758742;80;20990;-67
2021/12/17 05:25:45;;;;;;;5.50;2.47;;;;;;;;;;1757423;80;21160;-67
2021/12/17 05:28:11;;;;;;;6.10;3.02;;;;;;;;;;1756516;80;20942;-66
2021/12/17 05:30:40;;;;;;;5.35;2.90;;;;;;;;;;1757558;80;21668;-65
2021/12/17 05:33:06;;;;;;;5.67;2.83;;;;;;;;;;1762609;80;20899;-66
2021/12/17 05:35:33;;;;;;;7.20;3.40;;;;;;;;;;1765984;80;21508;-65
2021/12/17 05:38:00;;;;;;;7.33;2.92;;;;;;;;;;1759064;81;21198;-66
2021/12/17 05:40:27;;;;;;;8.85;2.70;;;;;;;;;;1757206;80;21429;-66
2021/12/17 05:42:58;;;;;;;5.20;2.30;;;;;;;;;;1759191;80;20970;-66
2021/12/17 05:45:47;;;;;;;6.00;2.30;;;;;;;;;;1757667;81;21045;-69
2021/12/17 05:48:06;;;;;;;5.75;2.92;;;;;;;;;;1754649;81;20931;-65
2021/12/17 05:50:35;;;;;;;7.08;2.72;;;;;;;;;;1758387;80;21936;-70
2021/12/17 05:53:01;;;;;;;10.03;3.12;;;;;;;;;;1758630;80;21574;-70
2021/12/17 05:55:28;;;;;;;7.12;3.17;;;;;;;;;;1757871;80;21409;-70
2021/12/17 05:57:55;;;;;;;10.82;3.10;;;;;;;;;;1758842;80;20938;-66
2021/12/17 06:00:22;;;;;;;5.58;2.62;;;;;;;;;;1757401;80;21465;-65
2021/12/17 06:02:48;;;;;;;8.25;3.10;;;;;;;;;;1758968;80;21827;-67
2021/12/17 06:05:17;;;;;;;7.28;2.62;;;;;;;;;;1758877;80;21030;-67
2021/12/17 06:07:44;;;;;;;12.53;2.98;;;;;;;;;;1756492;80;20934;-64
2021/12/17 06:10:10;;;;;;;8.38;2.83;;;;;;;;;;1757504;80;21076;-63
2021/12/17 06:12:39;;;;;;;8.43;2.90;;;;;;;;;;1756625;81;20926;-67
2021/12/17 06:15:08;;;;;;;7.40;2.60;;;;;;;;;;1757569;81;21074;-67
2021/12/17 06:17:34;;;;;;;10.43;2.90;;;;;;;;;;1758425;80;20985;-63
2021/12/17 06:20:00;;;;;;;8.23;2.75;;;;;;;;;;1755252;80;20994;-65
2021/12/17 06:22:27;;;;;;;6.95;3.42;;;;;;;;;;1751592;81;20863;-66
2021/12/17 06:24:55;;;;;;;7.30;3.17;;;;;;;;;;1751351;81;20958;-63
2021/12/17 06:27:23;;;;;;;9.53;3.35;;;;;;;;;;1755948;80;21062;-65
2021/12/17 06:29:50;;;;;;;8.13;3.17;;;;;;;;;;1751865;80;20998;-63
2021/12/17 06:32:17;;;;;;;5.25;2.92;;;;;;;;;;1751900;81;20947;-64
2021/12/17 06:34:43;;;;;;;6.83;2.70;;;;;;;;;;1758133;80;20977;-64
2021/12/17 06:37:09;;;;;;;7.15;3.25;;;;;;;;;;1752224;80;20978;-64
2021/12/17 06:39:37;;;;;;;10.20;4.42;;;;;;;;;;1751538;81;21847;-64
2021/12/17 06:42:04;;;;;;;6.60;2.95;;;;;;;;;;1752211;81;20930;-65
2021/12/17 06:44:32;;;;;;;5.70;2.65;;;;;;;;;;1752353;80;21488;-65
2021/12/17 06:49:47;;;;;;;5.83;2.70;;;;;;;;;;1746614;80;21030;-65
2021/12/17 06:55:12;;;;;;;7.40;2.58;;;;;;;;;;1752405;80;20950;-65
2021/12/17 07:10:05;;;;;;;6.87;3.75;;;;;;;;;;1717878;81;21520;-65
2021/12/17 07:17:39;;;;;;;7.35;2.72;;;;;;;;;;1708950;81;21069;-65
2021/12/17 07:22:47;;;;;;;8.10;3.15;;;;;;;;;;1729510;81;20978;-65
2021/12/17 07:33:22;;;;;;;9.50;4.25;;;;;;;;;;1734538;81;21163;-66
2021/12/17 07:35:54;;;;;;;8.33;4.20;;;;;;;;;;1728813;82;20946;-64
2021/12/17 07:41:07;;;;;;;9.15;3.02;;;;;;;;;;1723645;83;20942;-65
2021/12/17 07:43:38;;;;;;;7.25;3.27;;;;;;;;;;1732664;82;20987;-64
2021/12/17 07:46:09;;;;;;;7.28;3.10;;;;;;;;;;1729316;81;21381;-65
2021/12/17 07:48:36;;;;;;;7.67;2.95;;;;;;;;;;1738913;81;21440;-65
2021/12/17 07:51:07;;;;;;;7.08;3.52;;;;;;;;;;1731633;81;20962;-65
2021/12/17 07:53:47;;;;;;;7.00;2.80;;;;;;;;;;1740100;81;21041;-65
2021/12/17 07:56:18;;;;;;;6.80;3.83;;;;;;;;;;1741299;81;20930;-64
2021/12/17 07:58:44;;;;;;;8.58;3.50;;;;;;;;;;1735840;82;21224;-64
2021/12/17 08:01:11;;;;;;;7.17;3.27;;;;;;;;;;1738117;82;20945;-64
2021/12/17 08:03:38;;;;;;;6.37;3.02;;;;;;;;;;1730325;82;21001;-64
2021/12/17 08:06:23;;;;;;;5.25;2.92;;;;;;;;;;1730260;81;21002;-64
2021/12/17 08:09:06;;;;;;;4.95;2.72;;;;;;;;;;1701154;81;21503;-64
2021/12/17 08:11:38;;;;;;;6.30;3.05;;;;;;;;;;1728749;83;23193;-64
2021/12/17 08:14:07;;;;;;;8.98;3.05;;;;;;;;;;1729137;83;20993;-64
2021/12/17 08:16:41;;;;;;;7.22;3.00;;;;;;;;;;1729275;81;20977;-64
2021/12/17 08:27:11;;;;;;;4.65;2.55;;;;;;;;;;1772328;80;20122;-64
2021/12/17 08:32:05;;;;;;;4.75;2.87;;;;;;;;;;1775432;80;21505;-64
2021/12/17 08:34:35;;;;;;;7.12;3.33;;;;;;;;;;1778270;79;21022;-64
2021/12/17 08:37:05;;;;;;;7.30;2.52;;;;;;;;;;1767014;80;21792;-64
2021/12/17 08:39:33;;;;;;;7.35;2.92;;;;;;;;;;1768552;79;20977;-65
2021/12/17 08:42:02;;;;;;;6.00;3.20;;;;;;;;;;1752414;81;20915;-63
2021/12/17 08:44:29;;;;;;;8.00;3.37;;;;;;;;;;1780153;80;20995;-64
2021/12/17 08:47:14;;;;;;;4.72;2.35;;;;;;;;;;1771512;80;21004;-65
2021/12/17 08:49:43;;;;;;;5.65;2.98;;;;;;;;;;1773754;79;21155;-65
2021/12/17 08:52:14;;;;;;;4.17;3.20;;;;;;;;;;1777641;80;20992;-65
2021/12/17 08:54:40;;;;;;;5.87;3.17;;;;;;;;;;1767711;79;21519;-65
2021/12/17 08:57:09;;;;;;;5.65;3.45;;;;;;;;;;1765423;79;20993;-67
2021/12/17 08:59:37;;;;;;;6.83;2.92;;;;;;;;;;1765497;79;21008;-65
2021/12/17 09:02:14;;;;;;;5.30;2.67;;;;;;;;;;1765728;81;21301;-64
2021/12/17 09:04:58;;;;;;;6.22;2.80;;;;;;;;;;1736011;81;20882;-65
2021/12/17 09:07:24;;;;;;;5.62;2.77;;;;;;;;;;1731963;81;21452;-64
2021/12/17 09:09:53;;;;;;;7.08;2.85;;;;;;;;;;1734649;81;20978;-65
2021/12/17 09:12:21;;;;;;;7.45;3.80;;;;;;;;;;1751279;81;20950;-65
2021/12/17 09:14:48;;;;;;;7.75;3.15;;;;;;;;;;1736768;81;20899;-65
2021/12/17 09:17:35;;;;;;;6.95;3.25;;;;;;;;;;1740557;81;21042;-65
2021/12/17 09:20:04;;;;;;;5.97;3.05;;;;;;;;;;1694829;82;21564;-66
2021/12/17 09:22:31;;;;;;;7.67;3.25;;;;;;;;;;1699229;83;21552;-66
2021/12/17 09:24:59;;;;;;;7.67;3.45;;;;;;;;;;1724669;82;20854;-65
2021/12/17 09:27:27;;;;;;;8.78;4.50;;;;;;;;;;1730899;82;21816;-66
2021/12/17 09:30:15;;;;;;;7.28;4.25;;;;;;;;;;1762243;80;20974;-65
2021/12/17 09:32:42;;;;;;;7.25;4.00;;;;;;;;;;1763444;80;21551;-64
2021/12/17 09:35:09;;;;;;;9.68;5.10;;;;;;;;;;1766068;80;21044;-65
2021/12/17 09:37:35;;;;;;;8.10;4.72;;;;;;;;;;1763842;80;21516;-65
2021/12/17 09:40:04;;;;;;;8.68;4.42;;;;;;;;;;1768577;80;21152;-64
2021/12/17 09:42:29;;;;;;;13.22;5.53;;;;;;;;;;1764253;80;20928;-65
2021/12/17 09:44:55;;;;;;;9.03;4.87;;;;;;;;;;1765143;80;21466;-66
2021/12/17 09:47:22;;;;;;;10.35;4.80;;;;;;;;;;1760372;81;20922;-63
2021/12/17 09:49:54;;;;;;;9.00;4.72;;;;;;;;;;1761269;80;20878;-65
2021/12/17 09:52:20;;;;;;;9.70;5.45;;;;;;;;;;1760428;81;21156;-67
2021/12/17 09:54:47;;;;;;;13.50;6.50;;;;;;;;;;1760173;80;20894;-67
2021/12/17 09:57:14;;;;;;;18.17;8.90;;;;;;;;;;1760574;80;21627;-67
2021/12/17 09:59:42;;;;;;;23.55;10.90;;;;;;;;;;1760924;81;20951;-67
2021/12/17 10:02:08;;;;;;;17.17;9.68;;;;;;;;;;1761377;80;21411;-67
2021/12/17 10:04:34;;;;;;;17.87;9.00;;;;;;;;;;1762640;80;21153;-67
2021/12/17 10:07:21;;;;;;;15.55;9.15;;;;;;;;;;1761448;80;21031;-67
2021/12/17 10:09:55;;;;;;;17.12;9.23;;;;;;;;;;1747883;79;20970;-64
2021/12/17 10:12:24;;;;;;;17.10;8.38;;;;;;;;;;1759978;80;20990;-65
2021/12/17 10:15:07;;;;;;;15.20;8.00;;;;;;;;;;1759313;80;21037;-66
2021/12/17 10:17:34;;;;;;;15.95;9.15;;;;;;;;;;1758457;80;21176;-65
2021/12/17 10:20:07;;;;;;;14.85;7.22;;;;;;;;;;1758081;80;21604;-67
2021/12/17 10:22:33;;;;;;;11.15;6.65;;;;;;;;;;1759410;80;20959;-65
2021/12/17 10:25:04;;;;;;;12.28;7.20;;;;;;;;;;1749355;81;20942;-65
2021/12/17 10:27:33;;;;;;;13.58;8.23;;;;;;;;;;1764461;80;20983;-66
2021/12/17 10:30:11;;;;;;;15.78;9.25;;;;;;;;;;1748184;81;21078;-65
2021/12/17 10:32:43;;;;;;;17.20;10.90;;;;;;;;;;1758610;80;21729;-66
2021/12/17 10:35:16;;;;;;;20.75;11.63;;;;;;;;;;1757914;80;20978;-63
2021/12/17 10:37:57;;;;;;;18.92;12.53;;;;;;;;;;1722156;83;20938;-68
2021/12/17 10:40:28;;;;;;;21.55;12.55;;;;;;;;;;1757618;81;21428;-62
2021/12/17 10:43:16;;;;;;;22.60;13.03;;;;;;;;;;1758411;81;22104;-67
2021/12/17 10:45:42;;;;;;;20.05;12.88;;;;;;;;;;1755959;81;20859;-67
2021/12/17 10:48:26;;;;;;;21.97;12.35;;;;;;;;;;1757463;81;20995;-67
2021/12/17 10:51:03;;;;;;;22.05;11.40;;;;;;;;;;1755749;80;20868;-67
2021/12/17 10:53:29;;;;;;;15.35;8.98;;;;;;;;;;1734926;81;20855;-65
2021/12/17 10:55:55;;;;;;;19.90;10.05;;;;;;;;;;1757015;81;21130;-66
2021/12/17 10:58:22;;;;;;;20.88;12.20;;;;;;;;;;1757203;81;20982;-67
2021/12/17 11:00:57;;;;;;;21.65;12.23;;;;;;;;;;1756622;81;20971;-65
2021/12/17 11:03:24;;;;;;;22.85;12.88;;;;;;;;;;1760246;80;20942;-60
2021/12/17 11:05:51;;;;;;;17.10;11.10;;;;;;;;;;1756602;80;21045;-64
2021/12/17 11:08:24;;;;;;;10.78;7.50;;;;;;;;;;1756780;81;23269;-64
2021/12/17 11:10:58;;;;;;;6.85;4.80;;;;;;;;;;1756240;80;21022;-63
2021/12/17 11:13:21;;;;;;;9.38;5.17;;;;;;;;;;1757768;81;21498;-62
2021/12/17 11:15:49;;;;;;;13.03;6.58;;;;;;;;;;1756586;81;20871;-63
2021/12/17 11:18:17;;;;;;;7.05;4.30;;;;;;;;;;1761216;80;20981;-62
2021/12/17 11:20:44;;;;;;;11.30;4.22;;;;;;;;;;1756309;80;21095;-63
2021/12/17 11:23:13;;;;;;;6.95;3.55;;;;;;;;;;1754340;80;21421;-62
2021/12/17 11:25:44;;;;;;;9.78;5.55;;;;;;;;;;1751293;81;20946;-62
2021/12/17 11:28:12;;;;;;;12.65;7.42;;;;;;;;;;1750986;80;21513;-65
2021/12/17 11:30:42;;;;;;;14.35;7.00;;;;;;;;;;1753112;80;20931;-63
2021/12/17 11:33:09;;;;;;;9.65;6.15;;;;;;;;;;1751755;80;21982;-63
2021/12/17 11:35:38;;;;;;;9.05;5.40;;;;;;;;;;1752071;80;20851;-63
2021/12/17 11:38:28;;;;;;;10.90;4.97;;;;;;;;;;1751564;80;20982;-64
2021/12/17 11:40:58;;;;;;;12.40;4.87;;;;;;;;;;1723738;81;20997;-63
2021/12/17 11:43:52;;;;;;;14.05;6.00;;;;;;;;;;1719560;82;21483;-64
2021/12/17 11:46:29;;;;;;;11.50;6.50;;;;;;;;;;1751085;81;21240;-64
2021/12/17 11:49:02;;;;;;;12.85;8.25;;;;;;;;;;1752171;80;21115;-66
2021/12/17 11:51:31;;;;;;;13.50;8.15;;;;;;;;;;1746938;80;21073;-63
2021/12/17 11:54:02;;;;;;;16.27;8.10;;;;;;;;;;1751935;80;20992;-63
2021/12/17 11:56:43;;;;;;;11.93;6.80;;;;;;;;;;1751789;81;21006;-63
2021/12/17 11:59:30;;;;;;;8.28;5.12;;;;;;;;;;1752607;80;21075;-64
2021/12/17 12:02:16;;;;;;;5.78;4.00;;;;;;;;;;1751623;81;20943;-66
2021/12/17 12:04:53;;;;;;;9.48;5.55;;;;;;;;;;1757090;80;20990;-65
2021/12/17 12:07:28;;;;;;;9.35;5.22;;;;;;;;;;1751357;81;38930;-63
2021/12/17 12:10:15;;;;;;;8.33;6.10;;;;;;;;;;1751384;80;21069;-65
2021/12/17 12:12:49;;;;;;;10.20;7.10;;;;;;;;;;1749183;81;21151;-63
2021/12/17 12:15:23;;;;;;;9.45;6.60;;;;;;;;;;1756867;80;21631;-64
2021/12/17 12:18:03;;;;;;;9.88;5.33;;;;;;;;;;1754172;80;21016;-62
2021/12/17 12:20:50;;;;;;;9.08;4.37;;;;;;;;;;1718524;81;20974;-61
2021/12/17 12:23:37;;;;;;;10.60;6.28;;;;;;;;;;1751430;81;21488;-64
2021/12/17 12:26:11;;;;;;;8.50;6.22;;;;;;;;;;1748954;81;21217;-63
2021/12/17 12:28:53;;;;;;;6.95;5.10;;;;;;;;;;1756786;80;20955;-63
2021/12/17 12:31:27;;;;;;;4.00;2.50;;;;;;;;;;1751725;81;21031;-63
2021/12/17 12:34:07;;;;;;;2.00;1.80;;;;;;;;;;1752665;80;20998;-63
2021/12/17 12:36:46;;;;;;;3.37;1.50;;;;;;;;;;1763165;80;20925;-63
2021/12/17 12:39:24;;;;;;;2.70;1.32;;;;;;;;;;1747985;80;21178;-62
2021/12/17 12:42:18;;;;;;;2.92;1.65;;;;;;;;;;1766576;80;20932;-63
2021/12/17 12:44:48;;;;;;;2.62;1.20;;;;;;;;;;1749737;80;20970;-65
2021/12/17 12:47:27;;;;;;;2.37;1.32;;;;;;;;;;1751720;80;20953;-63
2021/12/17 12:50:10;;;;;;;3.27;1.02;;;;;;;;;;1728167;80;21022;-63
2021/12/17 12:52:47;;;;;;;1.40;0.90;;;;;;;;;;1750972;80;21179;-63
2021/12/17 12:55:34;;;;;;;2.35;1.25;;;;;;;;;;1727308;81;21513;-63
2021/12/17 12:58:10;;;;;;;3.00;1.20;;;;;;;;;;1751665;80;21013;-63
2021/12/17 13:00:45;;;;;;;1.22;1.00;;;;;;;;;;1750979;80;21018;-62
2021/12/17 13:03:20;;;;;;;1.70;1.10;;;;;;;;;;1753545;80;20947;-62
2021/12/17 13:05:47;;;;;;;8.65;2.72;;;;;;;;;;1751761;80;21928;-62
2021/12/17 13:08:17;;;;;;;5.75;4.08;;;;;;;;;;1751350;80;21012;-62
2021/12/17 13:10:50;;;;;;;4.12;3.40;;;;;;;;;;1755506;80;21039;-62
2021/12/17 13:13:22;;;;;;;3.83;2.98;;;;;;;;;;1752027;80;20904;-62
2021/12/17 13:16:07;;;;;;;6.05;2.52;;;;;;;;;;1751922;80;20984;-63
2021/12/17 13:24:10;;;;;;;3.52;1.72;;;;;;;;;;1751034;80;20905;-62
2021/12/17 13:26:26;;;;;;;2.47;1.35;;;;;;;;;;1749402;80;21019;-62
2021/12/17 13:29:09;;;;;;;3.62;1.70;;;;;;;;;;1752049;80;20954;-62
2021/12/17 13:31:47;;;;;;;3.98;2.17;;;;;;;;;;1755779;80;21916;-63
2021/12/17 13:34:17;;;;;;;2.20;2.00;;;;;;;;;;1753561;80;20908;-62
2021/12/17 13:37:07;;;;;;;5.05;3.52;;;;;;;;;;1751842;80;20954;-62
2021/12/17 13:39:46;;;;;;;3.83;3.42;;;;;;;;;;1751822;81;21477;-63
2021/12/17 13:42:16;;;;;;;3.90;2.17;;;;;;;;;;1750076;80;21532;-63
2021/12/17 13:44:59;;;;;;;1.70;1.35;;;;;;;;;;1744788;80;21179;-64
2021/12/17 13:47:28;;;;;;;1.80;1.02;;;;;;;;;;1751790;80;20959;-63
2021/12/17 13:50:21;;;;;;;1.70;1.32;;;;;;;;;;1753250;80;21042;-62
2021/12/17 13:52:55;;;;;;;3.77;1.27;;;;;;;;;;1754240;80;20942;-63
2021/12/17 13:55:29;;;;;;;2.50;1.20;;;;;;;;;;1751795;80;21542;-64
2021/12/17 13:57:55;;;;;;;1.85;1.02;;;;;;;;;;1752016;80;21789;-64
2021/12/17 14:00:31;;;;;;;1.77;1.40;;;;;;;;;;1751610;80;22453;-63
2021/12/17 14:02:58;;;;;;;1.57;1.47;;;;;;;;;;1753489;80;20911;-64
2021/12/17 14:05:29;;;;;;;2.30;1.55;;;;;;;;;;1749308;80;21058;-65
2021/12/17 14:08:00;;;;;;;5.37;1.90;;;;;;;;;;1752258;80;21032;-63
2021/12/17 14:10:31;;;;;;;6.67;2.47;;;;;;;;;;1752041;80;21226;-64
2021/12/17 14:12:59;;;;;;;6.80;4.78;;;;;;;;;;1751182;81;20982;-64
2021/12/17 14:15:28;;;;;;;6.97;5.10;;;;;;;;;;1752342;80;21075;-62
2021/12/17 14:18:03;;;;;;;5.25;4.42;;;;;;;;;;1750966;81;20950;-65
2021/12/17 14:20:39;;;;;;;6.72;3.30;;;;;;;;;;1751571;80;21064;-64
2021/12/17 14:23:10;;;;;;;4.58;4.10;;;;;;;;;;1746039;80;21246;-64
2021/12/17 14:25:40;;;;;;;12.70;7.37;;;;;;;;;;1754129;80;20877;-63
2021/12/17 14:28:19;;;;;;;9.73;8.78;;;;;;;;;;1747591;80;21034;-68
2021/12/17 14:30:59;;;;;;;10.58;9.10;;;;;;;;;;1754264;80;21548;-64
2021/12/17 14:33:36;;;;;;;9.65;7.87;;;;;;;;;;1755173;81;21064;-64
2021/12/17 14:36:10;;;;;;;5.28;4.65;;;;;;;;;;1752662;80;21799;-62
2021/12/17 14:38:51;;;;;;;6.78;4.53;;;;;;;;;;1754594;80;21021;-63
2021/12/17 14:41:44;;;;;;;6.10;3.85;;;;;;;;;;1753106;80;21426;-62
2021/12/17 14:44:20;;;;;;;4.25;2.67;;;;;;;;;;1749126;81;20907;-63
2021/12/17 14:46:40;;;;;;;3.62;2.25;;;;;;;;;;1754410;80;21434;-64
2021/12/17 14:58:06;;;;;;;3.02;2.52;;;;;;;;;;1777146;79;20117;-65
2021/12/17 15:04:51;;;;;;;2.92;1.60;;;;;;;;;;1771068;79;21064;-65
2021/12/17 15:07:19;;;;;;;2.25;1.67;;;;;;;;;;1779792;79;20930;-65
2021/12/17 15:09:47;;;;;;;4.75;2.10;;;;;;;;;;1781122;79;20974;-65
2021/12/17 15:12:37;;;;;;;2.87;2.25;;;;;;;;;;1784978;79;21423;-64
2021/12/17 15:14:54;;;;;;;2.47;2.05;;;;;;;;;;1782390;79;21162;-63
2021/12/17 15:17:20;;;;;;;2.25;2.05;;;;;;;;;;1795210;79;20905;-64
2021/12/17 15:19:47;;;;;;;3.40;2.60;;;;;;;;;;1773565;79;20927;-64
2021/12/17 15:22:13;;;;;;;3.72;2.25;;;;;;;;;;1783478;79;20993;-64
2021/12/17 15:24:39;;;;;;;4.05;2.10;;;;;;;;;;1783264;79;20926;-62
2021/12/17 15:27:06;;;;;;;1.80;1.70;;;;;;;;;;1780236;79;21133;-64
2021/12/17 15:29:32;;;;;;;4.92;2.12;;;;;;;;;;1778430;79;21409;-64
2021/12/17 15:31:58;;;;;;;3.22;1.98;;;;;;;;;;1763017;79;20910;-64
2021/12/17 15:34:25;;;;;;;2.12;1.62;;;;;;;;;;1778274;79;21457;-64
2021/12/17 15:36:52;;;;;;;3.25;1.65;;;;;;;;;;1779007;79;21075;-64
2021/12/17 15:39:19;;;;;;;2.33;1.42;;;;;;;;;;1779249;79;21160;-64
2021/12/17 15:41:45;;;;;;;3.50;2.05;;;;;;;;;;1774763;79;20989;-65
2021/12/17 15:44:11;;;;;;;4.08;2.58;;;;;;;;;;1771009;79;21496;-65
2021/12/17 15:46:38;;;;;;;6.20;2.47;;;;;;;;;;1774248;79;20997;-66
2021/12/17 15:49:05;;;;;;;4.53;2.30;;;;;;;;;;1772701;79;20934;-66
2021/12/17 15:51:32;;;;;;;5.00;2.80;;;;;;;;;;1773598;79;21977;-65
2021/12/17 15:53:58;;;;;;;4.58;2.60;;;;;;;;;;1773187;79;20993;-67
2021/12/17 15:56:25;;;;;;;2.92;2.25;;;;;;;;;;1785489;78;21096;-71
2021/12/17 15:58:51;;;;;;;5.75;4.60;;;;;;;;;;1801203;78;20886;-70
2021/12/17 16:01:17;;;;;;;16.45;5.58;;;;;;;;;;1807944;78;21562;-66
2021/12/17 16:03:44;;;;;;;5.40;3.75;;;;;;;;;;1816376;78;21475;-67
2021/12/17 16:06:10;;;;;;;10.15;5.60;;;;;;;;;;1796908;78;21377;-65
2021/12/17 16:08:43;;;;;;;6.40;4.35;;;;;;;;;;1763889;80;21440;-61
2021/12/17 16:11:22;;;;;;;3.72;3.35;;;;;;;;;;1813197;78;20925;-60
2021/12/17 16:21:23;;;;;;;3.77;2.55;;;;;;;;;;1800403;78;20835;-61
2021/12/17 16:23:51;;;;;;;2.50;2.30;;;;;;;;;;1812237;78;20918;-62
2021/12/17 16:26:19;;;;;;;4.80;2.30;;;;;;;;;;1801621;78;20938;-64
2021/12/17 16:28:47;;;;;;;1.72;1.60;;;;;;;;;;1805993;78;21170;-60
2021/12/17 16:31:19;;;;;;;2.05;1.37;;;;;;;;;;1773893;80;20874;-61
2021/12/17 16:33:45;;;;;;;3.12;1.50;;;;;;;;;;1813124;78;20882;-63
2021/12/17 16:36:11;;;;;;;2.52;1.60;;;;;;;;;;1809120;78;20913;-63
2021/12/17 16:38:38;;;;;;;3.55;2.00;;;;;;;;;;1776264;80;20911;-61
2021/12/17 16:41:04;;;;;;;2.42;1.70;;;;;;;;;;1812415;78;21124;-63
2021/12/17 16:43:32;;;;;;;5.78;4.70;;;;;;;;;;1810432;78;20934;-64
2021/12/17 16:46:23;;;;;;;13.90;11.55;;;;;;;;;;1801053;78;20938;-70
2021/12/17 16:48:35;;;;;;;17.42;14.23;;;;;;;;;;1798755;78;20898;-63
2021/12/17 16:51:02;;;;;;;16.90;14.87;;;;;;;;;;1793925;78;21409;-63
2021/12/17 16:53:28;;;;;;;14.35;11.18;;;;;;;;;;1795706;78;21169;-64
2021/12/17 16:55:57;;;;;;;9.20;8.30;;;;;;;;;;1770661;80;21006;-66
2021/12/17 16:58:23;;;;;;;6.22;4.53;;;;;;;;;;1797781;78;21048;-65
2021/12/17 17:00:49;;;;;;;3.80;3.40;;;;;;;;;;1773624;80;20879;-64
2021/12/17 17:03:16;;;;;;;3.25;2.47;;;;;;;;;;1792497;78;21491;-64
2021/12/17 17:05:42;;;;;;;4.47;3.20;;;;;;;;;;1799170;78;21132;-67
2021/12/17 17:08:09;;;;;;;3.15;2.60;;;;;;;;;;1812534;78;20926;-59
2021/12/17 17:10:37;;;;;;;3.20;2.52;;;;;;;;;;1802454;78;21507;-58
2021/12/17 17:13:04;;;;;;;2.30;1.90;;;;;;;;;;1811581;78;20875;-59
2021/12/17 17:15:35;;;;;;;3.98;2.42;;;;;;;;;;1811647;78;20930;-59
2021/12/17 17:18:04;;;;;;;2.25;2.08;;;;;;;;;;1759374;80;20847;-58
2021/12/17 17:20:32;;;;;;;3.42;2.50;;;;;;;;;;1798511;78;21017;-59
2021/12/17 17:22:59;;;;;;;2.72;2.25;;;;;;;;;;1796304;78;21006;-60
2021/12/17 17:25:25;;;;;;;3.75;2.22;;;;;;;;;;1796096;78;20933;-64
2021/12/17 17:27:52;;;;;;;3.75;2.27;;;;;;;;;;1796022;78;21000;-65
2021/12/17 17:30:18;;;;;;;2.83;2.30;;;;;;;;;;1798039;78;21132;-65
2021/12/17 17:32:45;;;;;;;3.00;2.12;;;;;;;;;;1763708;80;20998;-64
2021/12/17 17:35:12;;;;;;;4.30;2.72;;;;;;;;;;1798466;78;21057;-65
2021/12/17 17:37:38;;;;;;;5.03;3.75;;;;;;;;;;1763906;80;20922;-62
2021/12/17 17:40:06;;;;;;;9.88;8.05;;;;;;;;;;1800158;78;21080;-66
2021/12/17 17:42:33;;;;;;;11.90;9.10;;;;;;;;;;1797826;78;21449;-67
2021/12/17 17:45:00;;;;;;;9.93;8.65;;;;;;;;;;1795968;78;20891;-65
2021/12/17 17:47:26;;;;;;;7.20;6.47;;;;;;;;;;1797638;78;20945;-62
2021/12/17 17:49:54;;;;;;;5.62;4.83;;;;;;;;;;1799675;78;21488;-62
2021/12/17 17:52:20;;;;;;;4.92;4.08;;;;;;;;;;1799851;78;21464;-68
2021/12/17 17:54:47;;;;;;;3.75;2.80;;;;;;;;;;1799025;78;21192;-68
2021/12/17 17:57:13;;;;;;;3.22;2.20;;;;;;;;;;1799263;78;21001;-66
2021/12/17 17:59:46;;;;;;;5.62;2.35;;;;;;;;;;1793315;79;21047;-70
2021/12/17 18:02:08;;;;;;;3.65;2.58;;;;;;;;;;1797494;79;21477;-68
2021/12/17 18:04:35;;;;;;;4.87;2.72;;;;;;;;;;1798891;78;20985;-70
2021/12/17 18:07:03;;;;;;;4.83;2.65;;;;;;;;;;1799100;79;21136;-66
2021/12/17 18:09:29;;;;;;;2.47;2.25;;;;;;;;;;1797117;79;20991;-68